Time;durP1;ratioP1;P1;durP2;ratioP2;P2;SDS_P1;SDS_P2;PMS_P1;PMS_P2;Temp;Humidity;BMP_temperature;BMP_pressure;BME280_temperature;BME280_humidity;BME280_pressure;Samples;Min_cycle;Max_cycle;Signal;HPM_P1;HPM_P2
2022/07/09 00:01:02;;;;;;;4.28;2.53;;;;;;;24.63;64.57;94558.31;5070550;28;20653;-78
2022/07/09 00:03:29;;;;;;;3.90;2.47;;;;;;;24.62;65.18;94552.28;5070530;28;20202;-78
2022/07/09 00:05:55;;;;;;;7.70;2.88;;;;;;;24.65;64.62;94556.25;5070735;28;20202;-78
2022/07/09 00:08:22;;;;;;;4.53;2.70;;;;;;;24.59;64.77;94555.34;5070988;28;20209;-78
2022/07/09 00:10:49;;;;;;;3.38;2.60;;;;;;;24.65;64.90;94566.72;5070449;28;20586;-78
2022/07/09 00:13:16;;;;;;;3.88;2.42;;;;;;;24.64;64.75;94575.59;5070720;28;20661;-78
2022/07/09 00:15:44;;;;;;;3.53;3.20;;;;;;;24.64;64.75;94565.13;5070353;28;20190;-77
2022/07/09 00:18:11;;;;;;;6.28;3.35;;;;;;;24.61;64.80;94563.78;5070611;28;20190;-78
2022/07/09 00:20:38;;;;;;;3.13;2.88;;;;;;;24.60;64.73;94572.63;5070215;28;20206;-78
2022/07/09 00:23:04;;;;;;;5.75;2.85;;;;;;;24.59;64.81;94560.59;5070416;28;20704;-78
2022/07/09 00:25:31;;;;;;;2.97;2.70;;;;;;;24.57;64.77;94561.81;5070510;28;20195;-78
2022/07/09 00:27:58;;;;;;;4.13;2.50;;;;;;;24.55;64.88;94559.44;5070437;28;20565;-78
2022/07/09 00:30:25;;;;;;;3.08;2.47;;;;;;;24.52;64.93;94558.09;5070131;28;20681;-79
2022/07/09 00:32:55;;;;;;;2.35;2.13;;;;;;;24.49;65.39;94548.09;5070348;28;20190;-78
2022/07/09 00:35:21;;;;;;;3.90;2.97;;;;;;;24.49;65.52;94555.16;5070269;28;20183;-77
2022/07/09 00:37:48;;;;;;;3.53;2.42;;;;;;;24.47;65.59;94554.56;5070232;28;20206;-77
2022/07/09 00:40:15;;;;;;;4.93;2.67;;;;;;;24.46;65.67;94552.97;5070380;28;20218;-78
2022/07/09 00:42:42;;;;;;;4.90;2.40;;;;;;;24.44;65.53;94550.59;5070214;28;20194;-78
2022/07/09 00:45:09;;;;;;;2.95;2.67;;;;;;;24.36;65.74;94543.06;5070011;28;20198;-78
2022/07/09 00:47:36;;;;;;;2.30;2.10;;;;;;;24.42;65.86;94547.41;5069633;28;20705;-78
2022/07/09 00:50:05;;;;;;;7.38;2.42;;;;;;;24.41;65.67;94550.25;5069703;28;20182;-77
2022/07/09 00:52:33;;;;;;;16.88;2.47;;;;;;;24.40;65.79;94551.28;5069964;28;20187;-78
2022/07/09 00:55:02;;;;;;;2.38;2.05;;;;;;;24.39;65.66;94541.81;5050287;28;20190;-79
2022/07/09 00:57:29;;;;;;;2.50;2.30;;;;;;;24.35;65.76;94541.44;5051495;28;20187;-78
2022/07/09 00:59:58;;;;;;;3.78;1.98;;;;;;;24.35;65.81;94525.75;5053282;28;20187;-79
2022/07/09 01:02:24;;;;;;;4.10;2.10;;;;;;;24.37;65.73;94534.22;5069731;28;20182;-79
2022/07/09 01:04:51;;;;;;;2.53;2.33;;;;;;;24.33;66.01;94514.75;5069738;28;20182;-77
2022/07/09 01:07:20;;;;;;;2.17;2.08;;;;;;;24.35;65.83;94530.19;5070132;28;20186;-77
2022/07/09 01:09:47;;;;;;;2.70;2.30;;;;;;;24.34;66.06;94521.56;5069903;28;20201;-77
2022/07/09 01:12:14;;;;;;;4.55;2.78;;;;;;;24.33;66.33;94522.59;5070111;28;20222;-77
2022/07/09 01:14:41;;;;;;;3.17;2.10;;;;;;;24.32;66.23;94531.47;5070686;28;20197;-77
2022/07/09 01:17:08;;;;;;;3.63;2.08;;;;;;;24.28;66.10;94514.63;5074031;28;20719;-78
2022/07/09 01:19:35;;;;;;;2.53;2.33;;;;;;;24.28;66.28;94522.47;5073819;28;20248;-78
2022/07/09 01:22:04;;;;;;;3.50;2.13;;;;;;;24.26;66.24;94519.28;5074293;28;20194;-78
2022/07/09 01:24:31;;;;;;;2.83;2.35;;;;;;;24.27;66.10;94516.47;5073619;28;20186;-78
2022/07/09 01:26:58;;;;;;;2.50;2.30;;;;;;;24.26;66.12;94512.22;5073814;28;20189;-79
2022/07/09 01:29:25;;;;;;;2.30;2.00;;;;;;;24.27;66.37;94515.66;5073313;28;20195;-77
2022/07/09 01:31:52;;;;;;;3.60;1.90;;;;;;;24.23;66.20;94504.88;5073887;28;20225;-77
2022/07/09 01:34:18;;;;;;;2.40;2.20;;;;;;;24.20;66.56;94505.31;5066088;28;20191;-78
2022/07/09 01:36:46;;;;;;;3.78;2.70;;;;;;;24.25;66.45;94509.84;5054015;28;20211;-77
2022/07/09 01:39:14;;;;;;;3.35;2.17;;;;;;;24.24;66.51;94506.44;5053806;28;20218;-78
2022/07/09 01:41:41;;;;;;;2.53;2.33;;;;;;;24.19;66.38;94508.97;5053779;28;20581;-78
2022/07/09 01:44:08;;;;;;;3.03;2.25;;;;;;;24.21;66.60;94506.91;5053203;28;20190;-77
2022/07/09 01:46:35;;;;;;;4.28;2.67;;;;;;;24.19;66.43;94506.34;5053770;28;20195;-77
2022/07/09 01:49:02;;;;;;;9.13;2.00;;;;;;;24.20;66.61;94507.13;5061599;28;20194;-77
2022/07/09 01:51:29;;;;;;;3.65;2.30;;;;;;;24.12;66.48;94494.41;5073241;28;20237;-78
2022/07/09 01:53:56;;;;;;;2.78;2.00;;;;;;;24.18;66.67;94503.94;5073241;28;20193;-77
2022/07/09 01:56:24;;;;;;;2.30;2.17;;;;;;;24.18;66.72;94509.16;5073160;28;20233;-77
2022/07/09 01:58:51;;;;;;;6.50;1.88;;;;;;;24.17;66.67;94502.34;5073225;28;20198;-78
2022/07/09 02:01:18;;;;;;;2.10;2.00;;;;;;;24.16;66.59;94506.78;5073223;28;20669;-77
2022/07/09 02:03:45;;;;;;;1.90;1.80;;;;;;;24.15;66.58;94505.19;5073021;28;20653;-79
2022/07/09 02:06:11;;;;;;;3.22;2.10;;;;;;;24.15;66.68;94501.78;5072692;28;20660;-78
2022/07/09 02:08:39;;;;;;;2.17;2.03;;;;;;;24.14;66.65;94508.84;5073204;28;20190;-79
2022/07/09 02:11:06;;;;;;;2.83;1.90;;;;;;;24.13;67.01;94509.06;5072649;28;20218;-79
2022/07/09 02:13:34;;;;;;;2.33;2.13;;;;;;;24.13;66.69;94514.28;5073015;28;20193;-77
2022/07/09 02:16:01;;;;;;;1.98;1.88;;;;;;;24.11;66.67;94513.72;5072843;28;20221;-78
2022/07/09 02:18:28;;;;;;;3.63;1.98;;;;;;;24.11;66.71;94511.91;5072466;28;20193;-78
2022/07/09 02:20:56;;;;;;;2.13;1.98;;;;;;;24.05;66.83;94507.59;5072722;28;20274;-78
2022/07/09 02:23:23;;;;;;;2.65;2.00;;;;;;;24.09;67.05;94511.31;5072849;28;20197;-78
2022/07/09 02:25:50;;;;;;;2.10;2.00;;;;;;;24.07;66.96;94513.38;5072038;28;20225;-77
2022/07/09 02:28:17;;;;;;;2.80;2.60;;;;;;;24.07;67.17;94515.19;5071865;28;20205;-78
2022/07/09 02:30:45;;;;;;;1.83;1.73;;;;;;;24.07;66.80;94518.59;5072433;28;20232;-79
2022/07/09 02:33:13;;;;;;;2.22;2.00;;;;;;;24.02;66.80;94514.03;5072499;28;20600;-77
2022/07/09 02:35:40;;;;;;;3.45;2.00;;;;;;;24.07;67.00;94518.59;5072699;28;20189;-78
2022/07/09 02:38:07;;;;;;;2.05;1.95;;;;;;;24.07;67.14;94528.25;5072237;28;20205;-77
2022/07/09 02:40:33;;;;;;;2.50;2.30;;;;;;;23.97;66.88;94524.38;5072432;28;20202;-78
2022/07/09 02:43:00;;;;;;;2.50;2.30;;;;;;;24.05;66.98;94525.88;5072160;28;20633;-78
2022/07/09 02:45:27;;;;;;;2.10;1.90;;;;;;;24.02;66.85;94521.88;5072870;28;20186;-78
2022/07/09 02:47:55;;;;;;;2.75;2.00;;;;;;;24.05;66.82;94531.09;5071770;28;20218;-78
2022/07/09 02:50:22;;;;;;;2.53;2.33;;;;;;;24.04;67.05;94532.91;5072563;28;20661;-78
2022/07/09 02:52:49;;;;;;;4.07;1.95;;;;;;;24.05;67.16;94528.50;5071937;28;20226;-78
2022/07/09 02:55:16;;;;;;;3.40;2.17;;;;;;;24.00;66.90;94528.34;5072177;28;20186;-78
2022/07/09 02:57:43;;;;;;;2.00;1.90;;;;;;;24.04;66.82;94532.09;5072020;28;20209;-77
2022/07/09 03:00:10;;;;;;;5.18;2.13;;;;;;;24.02;67.21;94526.31;5072219;28;20201;-77
2022/07/09 03:02:37;;;;;;;3.08;2.00;;;;;;;24.02;67.07;94536.78;5072066;28;20205;-78
2022/07/09 03:05:06;;;;;;;1.80;1.70;;;;;;;24.02;67.01;94542.00;5072088;28;20187;-78
2022/07/09 03:07:33;;;;;;;2.17;2.08;;;;;;;24.02;67.18;94544.59;5071783;28;20198;-78
2022/07/09 03:10:00;;;;;;;3.17;1.98;;;;;;;24.00;67.31;94539.59;5072012;28;20185;-76
2022/07/09 03:12:27;;;;;;;2.00;1.90;;;;;;;24.01;67.32;94541.19;5071378;28;20222;-78
2022/07/09 03:14:53;;;;;;;2.33;2.10;;;;;;;23.93;67.55;94530.28;5071737;28;20201;-78
2022/07/09 03:17:21;;;;;;;1.98;1.88;;;;;;;24.01;67.47;94543.81;5072164;28;20186;-78
2022/07/09 03:19:47;;;;;;;2.80;2.00;;;;;;;24.01;67.76;94540.41;5071653;28;20281;-78
2022/07/09 03:22:16;;;;;;;3.72;2.00;;;;;;;24.00;67.84;94538.78;5071249;28;20197;-78
2022/07/09 03:24:42;;;;;;;3.58;2.15;;;;;;;23.99;67.75;94538.00;5071191;28;20554;-78
2022/07/09 03:27:09;;;;;;;4.25;2.05;;;;;;;23.97;67.82;94540.06;5071538;28;20189;-78
2022/07/09 03:29:36;;;;;;;2.10;2.00;;;;;;;23.99;67.87;94542.44;5071078;28;20587;-78
2022/07/09 03:32:03;;;;;;;2.00;1.90;;;;;;;23.98;67.83;94533.81;5071353;28;20681;-78
2022/07/09 03:34:30;;;;;;;2.33;2.10;;;;;;;23.98;67.84;94533.00;5071390;28;20183;-78
2022/07/09 03:36:57;;;;;;;2.35;2.15;;;;;;;23.98;67.89;94535.63;5071303;28;20195;-78
2022/07/09 03:39:25;;;;;;;2.25;2.05;;;;;;;23.98;67.87;94525.97;5071091;28;20182;-77
2022/07/09 03:41:52;;;;;;;2.38;2.17;;;;;;;23.98;68.16;94539.03;5070903;28;20194;-78
2022/07/09 03:44:19;;;;;;;2.22;2.05;;;;;;;23.98;68.07;94531.19;5071049;28;20195;-78
2022/07/09 03:46:46;;;;;;;2.90;1.90;;;;;;;23.96;68.37;94528.03;5071075;28;20934;-78
2022/07/09 03:49:13;;;;;;;2.83;1.90;;;;;;;23.98;68.05;94539.03;5071307;28;20201;-77
2022/07/09 03:51:39;;;;;;;2.08;1.98;;;;;;;23.98;68.05;94536.41;5070739;28;20245;-78
2022/07/09 03:54:06;;;;;;;2.42;2.22;;;;;;;23.96;68.26;94537.66;5071961;28;20190;-77
2022/07/09 03:56:35;;;;;;;2.53;2.33;;;;;;;23.96;68.15;94535.84;5071226;28;20186;-77
2022/07/09 03:59:02;;;;;;;2.28;2.15;;;;;;;23.96;67.96;94537.66;5071098;28;20197;-78
2022/07/09 04:01:29;;;;;;;1.90;1.80;;;;;;;23.98;68.04;94538.25;5070987;28;20191;-77
2022/07/09 04:03:55;;;;;;;2.35;2.15;;;;;;;23.97;68.05;94536.66;5070773;28;20182;-78
2022/07/09 04:06:22;;;;;;;3.42;2.03;;;;;;;23.95;68.27;94534.25;5070892;28;20201;-77
2022/07/09 04:08:49;;;;;;;2.13;2.03;;;;;;;23.93;67.96;94531.06;5070806;28;20673;-77
2022/07/09 04:11:16;;;;;;;2.45;2.22;;;;;;;24.00;68.23;94541.41;5070447;28;20253;-78
2022/07/09 04:13:44;;;;;;;2.45;2.10;;;;;;;24.01;68.01;94543.03;5070641;28;20273;-78
2022/07/09 04:16:11;;;;;;;2.00;1.90;;;;;;;23.98;68.17;94541.63;5070564;28;20182;-78
2022/07/09 04:18:38;;;;;;;2.03;1.92;;;;;;;24.01;67.84;94556.88;5070343;28;20198;-77
2022/07/09 04:21:05;;;;;;;4.30;2.00;;;;;;;24.03;68.24;94552.22;5070337;28;20609;-78
2022/07/09 04:23:32;;;;;;;2.15;2.05;;;;;;;24.04;67.87;94547.78;5070525;28;20198;-78
2022/07/09 04:25:58;;;;;;;2.70;2.08;;;;;;;24.06;67.96;94555.41;5070236;28;20568;-78
2022/07/09 04:28:26;;;;;;;2.20;2.00;;;;;;;24.04;68.00;94553.78;5070309;28;20201;-78
2022/07/09 04:30:54;;;;;;;2.22;2.03;;;;;;;24.08;67.83;94563.81;5068798;28;20191;-77
2022/07/09 04:33:21;;;;;;;3.55;2.30;;;;;;;24.08;67.88;94567.22;5070358;28;20218;-77
2022/07/09 04:35:48;;;;;;;3.20;1.90;;;;;;;24.07;67.82;94560.41;5050519;28;20202;-77
2022/07/09 04:38:15;;;;;;;3.58;1.90;;;;;;;24.10;67.60;94557.34;5050217;28;20187;-78
2022/07/09 04:40:42;;;;;;;3.75;2.50;;;;;;;24.12;67.63;94557.91;5056614;28;20216;-77
2022/07/09 04:43:09;;;;;;;2.47;2.00;;;;;;;24.12;67.75;94557.91;5069856;28;20190;-77
2022/07/09 04:45:35;;;;;;;3.75;2.08;;;;;;;24.13;67.36;94553.47;5069930;28;20187;-77
2022/07/09 04:48:05;;;;;;;2.60;2.13;;;;;;;24.17;67.34;94557.22;5069930;28;20693;-77
2022/07/09 04:50:32;;;;;;;3.33;2.35;;;;;;;24.18;67.29;94551.78;5069535;28;20179;-78
2022/07/09 04:52:59;;;;;;;3.08;2.00;;;;;;;24.19;67.04;94540.31;5070379;28;20221;-78
2022/07/09 04:55:26;;;;;;;3.85;2.38;;;;;;;24.23;67.05;94554.53;5070224;28;20197;-79
2022/07/09 04:57:52;;;;;;;1.98;1.80;;;;;;;24.25;66.97;94554.28;5070123;28;20554;-78
2022/07/09 05:00:19;;;;;;;2.40;2.20;;;;;;;24.28;66.63;94557.25;5069917;28;20669;-77
2022/07/09 05:02:47;;;;;;;2.63;2.08;;;;;;;24.31;66.79;94556.00;5069969;28;20202;-78
2022/07/09 05:05:15;;;;;;;2.47;2.22;;;;;;;24.35;66.57;94556.34;5069548;28;20197;-77
2022/07/09 05:07:42;;;;;;;3.20;2.17;;;;;;;24.35;66.52;94554.50;5070078;28;20206;-77
2022/07/09 05:10:10;;;;;;;3.30;2.05;;;;;;;24.31;66.55;94542.13;5070007;28;20183;-77
2022/07/09 05:12:37;;;;;;;1.92;1.83;;;;;;;24.42;66.47;94559.69;5069676;28;20777;-77
2022/07/09 05:15:04;;;;;;;7.93;2.40;;;;;;;24.43;66.29;94559.44;5069756;28;20194;-79
2022/07/09 05:17:34;;;;;;;3.08;2.05;;;;;;;24.49;65.98;94570.81;5070019;28;20188;-77
2022/07/09 05:20:03;;;;;;;2.33;2.22;;;;;;;24.48;66.01;94564.81;5069181;28;20194;-77
2022/07/09 05:22:32;;;;;;;2.17;1.98;;;;;;;24.55;65.87;94569.13;5049896;28;20199;-77
2022/07/09 05:24:59;;;;;;;4.07;2.03;;;;;;;24.57;65.96;94570.50;5066286;28;20260;-79
2022/07/09 05:27:26;;;;;;;5.30;2.30;;;;;;;24.52;65.78;94563.34;5070065;28;20194;-79
2022/07/09 05:29:53;;;;;;;2.70;2.03;;;;;;;24.61;65.61;94568.19;5069741;28;20198;-78
2022/07/09 05:32:20;;;;;;;2.53;2.30;;;;;;;24.56;65.58;94570.69;5069795;28;20228;-78
2022/07/09 05:34:47;;;;;;;3.47;2.00;;;;;;;24.63;65.28;94584.47;5069857;28;20278;-78
2022/07/09 05:37:15;;;;;;;2.42;2.20;;;;;;;24.61;65.42;94581.28;5069465;28;20191;-78
2022/07/09 05:39:43;;;;;;;3.53;2.15;;;;;;;24.59;65.49;94575.50;5069877;28;20573;-78
2022/07/09 05:42:10;;;;;;;2.38;1.98;;;;;;;24.63;65.60;94582.66;5069417;28;20248;-78
2022/07/09 05:44:37;;;;;;;3.10;2.15;;;;;;;24.61;65.35;94581.28;5069172;28;20193;-78
2022/07/09 05:47:04;;;;;;;3.28;1.90;;;;;;;24.63;65.38;94584.47;5069293;28;20222;-78
2022/07/09 05:49:31;;;;;;;2.45;2.13;;;;;;;24.63;65.18;94584.47;5069438;28;20584;-78
2022/07/09 05:51:58;;;;;;;3.40;2.13;;;;;;;24.64;65.32;94592.06;5069137;28;20712;-78
2022/07/09 05:54:25;;;;;;;2.80;2.60;;;;;;;24.64;65.36;94592.06;5070093;28;20183;-78
2022/07/09 05:56:53;;;;;;;2.10;2.00;;;;;;;24.62;65.41;94591.53;5069568;28;20217;-78
2022/07/09 05:59:20;;;;;;;2.22;2.03;;;;;;;24.63;65.38;94589.69;5069792;28;20195;-78
2022/07/09 06:01:47;;;;;;;2.10;2.00;;;;;;;24.60;64.90;94577.06;5071882;28;20266;-78
2022/07/09 06:04:14;;;;;;;2.45;2.08;;;;;;;24.70;65.26;94587.78;5072943;28;20186;-78
2022/07/09 06:06:41;;;;;;;1.95;1.85;;;;;;;24.71;65.06;94590.16;5073084;28;20264;-79
2022/07/09 06:09:08;;;;;;;2.38;2.15;;;;;;;24.73;65.07;94589.91;5073140;28;20193;-77
2022/07/09 06:11:35;;;;;;;2.67;1.60;;;;;;;24.74;64.79;94594.13;5072987;28;20194;-77
2022/07/09 06:14:04;;;;;;;1.88;1.70;;;;;;;24.75;64.64;94596.53;5072986;28;20186;-77
2022/07/09 06:16:30;;;;;;;2.67;2.00;;;;;;;24.75;64.71;94596.53;5072546;28;20654;-78
2022/07/09 06:18:57;;;;;;;2.25;2.15;;;;;;;24.75;64.90;94598.34;5072687;28;20182;-78
2022/07/09 06:21:24;;;;;;;2.15;1.70;;;;;;;24.72;64.83;94596.97;5072665;28;20178;-79
2022/07/09 06:23:51;;;;;;;2.28;1.90;;;;;;;24.66;64.56;94582.19;5073011;28;20213;-78
2022/07/09 06:26:18;;;;;;;1.83;1.73;;;;;;;24.75;64.77;94599.13;5072725;28;20212;-78
2022/07/09 06:28:46;;;;;;;3.40;1.83;;;;;;;24.74;64.85;94596.72;5072583;28;20190;-78
2022/07/09 06:31:14;;;;;;;2.20;2.00;;;;;;;24.71;64.54;94589.38;5072509;28;20646;-78
2022/07/09 06:33:41;;;;;;;4.40;2.28;;;;;;;24.72;64.71;94599.59;5072195;28;20297;-78
2022/07/09 06:36:08;;;;;;;2.15;1.95;;;;;;;24.74;64.89;94601.97;5072068;28;20202;-77
2022/07/09 06:39:44;;;;;;;2.50;2.30;;;;;;;24.71;64.67;94598.00;5070675;28;20198;-77
2022/07/09 06:41:22;;;;;;;2.60;2.10;;;;;;;24.78;64.73;94610.94;5072048;28;20578;-78
2022/07/09 06:43:49;;;;;;;2.05;1.95;;;;;;;24.71;64.56;94592.78;5071517;28;20186;-78
2022/07/09 06:46:17;;;;;;;2.35;2.20;;;;;;;24.78;64.72;94610.94;5072666;28;20677;-78
2022/07/09 06:48:44;;;;;;;2.42;2.22;;;;;;;24.76;64.70;94607.78;5073116;28;20222;-80
2022/07/09 06:51:11;;;;;;;2.25;2.15;;;;;;;24.76;64.89;94600.72;5072614;28;20194;-83
2022/07/09 06:53:38;;;;;;;2.63;2.13;;;;;;;24.76;64.76;94607.78;5072061;28;20677;-81
2022/07/09 06:56:06;;;;;;;3.88;2.00;;;;;;;24.75;64.80;94614.84;5072773;28;20202;-80
2022/07/09 06:58:33;;;;;;;2.30;2.10;;;;;;;24.79;64.67;94612.56;5072903;28;20661;-80
2022/07/09 07:00:59;;;;;;;2.08;1.90;;;;;;;24.79;64.58;94609.94;5072601;28;20194;-79
2022/07/09 07:03:28;;;;;;;3.42;2.30;;;;;;;24.70;64.59;94596.41;5072391;28;20182;-81
2022/07/09 07:05:55;;;;;;;3.72;2.22;;;;;;;24.71;64.53;94603.22;5072166;28;20541;-77
2022/07/09 07:08:21;;;;;;;3.47;2.20;;;;;;;24.82;64.32;94613.91;5071885;28;20198;-78
2022/07/09 07:10:48;;;;;;;6.63;1.98;;;;;;;24.84;64.49;94615.28;5072005;28;20192;-78
2022/07/09 07:13:15;;;;;;;9.02;2.03;;;;;;;24.79;64.32;94604.72;5071632;28;20229;-78
2022/07/09 07:15:44;;;;;;;2.42;2.17;;;;;;;24.81;64.09;94613.13;5066670;28;20190;-78
2022/07/09 07:18:11;;;;;;;12.32;2.30;;;;;;;24.81;63.96;94610.50;5072211;28;20206;-79
2022/07/09 07:20:39;;;;;;;2.35;1.98;;;;;;;24.83;63.96;94610.25;5071600;28;20571;-77
2022/07/09 07:23:06;;;;;;;3.45;2.30;;;;;;;24.83;63.81;94610.25;5071724;28;20601;-77
2022/07/09 07:25:33;;;;;;;2.35;2.15;;;;;;;24.82;63.77;94611.28;5061174;28;20567;-79
2022/07/09 07:28:01;;;;;;;2.55;2.35;;;;;;;24.85;63.52;94609.03;5071452;28;20183;-79
2022/07/09 07:30:28;;;;;;;3.03;2.53;;;;;;;24.89;63.67;94610.16;5071938;28;20269;-80
2022/07/09 07:32:55;;;;;;;5.47;2.65;;;;;;;24.90;63.33;94614.38;5071803;28;20792;-79
2022/07/09 07:35:24;;;;;;;3.00;2.70;;;;;;;24.92;63.24;94611.53;5071635;28;20199;-79
2022/07/09 07:37:53;;;;;;;2.42;2.22;;;;;;;24.99;63.58;94617.44;5071499;28;20642;-80
2022/07/09 07:40:20;;;;;;;3.40;2.50;;;;;;;25.09;63.48;94606.44;5071498;28;20190;-80
2022/07/09 07:42:47;;;;;;;2.40;2.30;;;;;;;25.19;63.98;94610.03;5071311;28;20627;-79
2022/07/09 07:45:14;;;;;;;2.42;2.22;;;;;;;25.24;63.65;94599.66;5071366;28;20226;-80
2022/07/09 07:47:41;;;;;;;4.25;2.30;;;;;;;25.41;63.36;94610.22;5071080;28;20230;-80
2022/07/09 07:50:09;;;;;;;4.47;2.22;;;;;;;25.53;63.37;94612.81;5071443;28;20247;-80
2022/07/09 07:52:37;;;;;;;2.25;2.05;;;;;;;25.63;63.38;94615.63;5071195;28;20222;-81
2022/07/09 07:55:07;;;;;;;2.03;1.88;;;;;;;25.70;63.83;94618.91;5070675;28;20194;-79
2022/07/09 07:57:36;;;;;;;2.70;2.50;;;;;;;25.68;63.01;94601.81;5071222;28;20205;-81
2022/07/09 08:00:05;;;;;;;3.60;2.40;;;;;;;25.70;62.13;94602.41;5071036;28;20281;-77
2022/07/09 08:02:32;;;;;;;2.50;2.30;;;;;;;25.68;62.17;94602.63;5071242;28;20198;-80
2022/07/09 08:04:58;;;;;;;2.33;2.13;;;;;;;25.77;62.05;94608.31;5071520;28;20213;-80
2022/07/09 08:07:25;;;;;;;3.28;2.13;;;;;;;25.76;62.04;94610.13;5070874;28;20186;-79
2022/07/09 08:09:52;;;;;;;2.30;2.10;;;;;;;25.77;61.55;94610.94;5071002;28;20611;-77
2022/07/09 08:12:20;;;;;;;2.40;2.30;;;;;;;25.78;61.36;94609.91;5070613;28;20528;-81
2022/07/09 08:14:47;;;;;;;2.00;1.90;;;;;;;25.81;61.79;94603.41;5071184;28;20190;-81
2022/07/09 08:17:14;;;;;;;3.03;2.30;;;;;;;25.92;61.10;94608.59;5070903;28;20197;-79
2022/07/09 08:19:41;;;;;;;2.38;2.17;;;;;;;26.06;61.73;94613.53;5070837;28;20183;-79
2022/07/09 08:22:08;;;;;;;2.22;2.10;;;;;;;26.17;61.56;94602.22;5070892;28;20187;-79
2022/07/09 08:24:35;;;;;;;2.30;2.13;;;;;;;26.34;61.70;94615.31;5069955;28;20192;-81
2022/07/09 08:27:02;;;;;;;2.00;1.90;;;;;;;26.45;61.59;94611.84;5071014;28;20217;-80
2022/07/09 08:29:30;;;;;;;2.00;1.90;;;;;;;26.55;61.31;94604.13;5070210;28;20716;-80
2022/07/09 08:31:57;;;;;;;3.42;1.90;;;;;;;26.62;61.03;94610.03;5070936;28;20221;-79
2022/07/09 08:34:24;;;;;;;2.47;2.38;;;;;;;26.69;60.94;94605.44;5070965;28;20609;-79
2022/07/09 08:36:51;;;;;;;2.25;2.05;;;;;;;26.66;60.88;94598.03;5071320;28;20183;-79
2022/07/09 08:39:18;;;;;;;2.22;2.00;;;;;;;26.81;60.60;94615.81;5070417;28;20182;-80
2022/07/09 08:41:45;;;;;;;2.53;1.92;;;;;;;26.86;60.07;94617.75;5070618;28;20205;-80
2022/07/09 08:44:12;;;;;;;2.17;2.08;;;;;;;26.85;59.76;94614.28;5070375;28;20205;-79
2022/07/09 08:46:41;;;;;;;2.17;2.03;;;;;;;26.89;59.73;94620.66;5070949;28;20251;-80
2022/07/09 08:49:08;;;;;;;1.88;1.77;;;;;;;26.84;59.57;94615.34;5070764;28;20206;-79
2022/07/09 08:51:36;;;;;;;2.05;1.95;;;;;;;26.79;59.48;94614.47;5070930;28;20202;-79
2022/07/09 08:54:04;;;;;;;2.13;1.92;;;;;;;26.75;58.86;94622.81;5070549;28;20233;-78
2022/07/09 08:56:30;;;;;;;2.55;2.10;;;;;;;26.73;59.23;94621.50;5070402;28;20194;-79
2022/07/09 08:58:57;;;;;;;2.10;2.00;;;;;;;26.66;59.25;94621.63;5071028;28;20178;-80
2022/07/09 09:01:27;;;;;;;2.08;1.98;;;;;;;26.57;59.17;94615.22;5070559;28;20190;-80
2022/07/09 09:03:55;;;;;;;2.00;1.90;;;;;;;26.52;59.31;94623.00;5070845;28;20190;-79
2022/07/09 09:06:24;;;;;;;2.38;2.20;;;;;;;26.44;59.67;94620.78;5070607;28;20187;-81
2022/07/09 09:08:55;;;;;;;2.25;2.15;;;;;;;26.35;59.67;94616.91;5070978;28;20197;-80
2022/07/09 09:11:25;;;;;;;2.20;2.10;;;;;;;26.28;59.54;94610.00;5070554;28;20623;-80
2022/07/09 09:13:53;;;;;;;3.97;2.47;;;;;;;26.21;59.46;94619.84;5070062;28;20673;-81
2022/07/09 09:16:22;;;;;;;2.58;2.38;;;;;;;26.13;60.05;94617.63;5069968;28;20194;-80
2022/07/09 09:18:50;;;;;;;2.70;2.50;;;;;;;26.07;60.02;94625.63;5070355;28;20190;-79
2022/07/09 09:21:31;;;;;;;2.80;2.60;;;;;;;26.01;60.14;94622.13;5070132;28;20205;-80
2022/07/09 09:23:59;;;;;;;2.50;2.28;;;;;;;25.94;60.29;94627.50;5069837;28;20260;-79
2022/07/09 09:26:28;;;;;;;3.55;2.75;;;;;;;25.81;60.16;94606.03;5069926;28;20220;-80
2022/07/09 09:28:56;;;;;;;3.25;2.95;;;;;;;25.84;60.92;94616.84;5070378;28;20179;-79
2022/07/09 09:31:25;;;;;;;2.83;2.50;;;;;;;25.77;61.31;94609.09;5063632;28;20195;-78
2022/07/09 09:33:53;;;;;;;2.53;2.33;;;;;;;25.86;61.43;94616.59;5060634;28;20231;-78
2022/07/09 09:36:33;;;;;;;2.85;2.65;;;;;;;25.80;61.19;94594.75;5062125;28;20183;-78
2022/07/09 09:39:11;;;;;;;2.40;2.20;;;;;;;25.95;61.30;94607.31;5073925;28;20572;-78
2022/07/09 09:41:38;;;;;;;2.92;2.35;;;;;;;26.02;61.17;94613.22;5067482;28;20603;-79
2022/07/09 09:44:09;;;;;;;4.78;2.65;;;;;;;26.07;60.68;94617.75;5073907;28;20197;-80
2022/07/09 09:46:37;;;;;;;3.05;2.28;;;;;;;26.13;60.69;94611.59;5067689;28;20186;-82
2022/07/09 09:49:07;;;;;;;2.50;2.30;;;;;;;26.20;60.95;94612.22;5073980;28;20194;-78
2022/07/09 09:51:39;;;;;;;2.50;2.40;;;;;;;26.20;60.62;94618.25;5073358;28;20675;-80
2022/07/09 09:54:06;;;;;;;2.80;2.60;;;;;;;26.17;60.92;94618.72;5073737;28;20234;-81
2022/07/09 09:56:34;;;;;;;2.70;2.50;;;;;;;26.15;60.62;94618.16;5073049;28;20198;-79
2022/07/09 09:59:01;;;;;;;2.65;2.45;;;;;;;26.06;60.54;94608.31;5073683;28;20197;-80
2022/07/09 10:01:29;;;;;;;4.20;2.97;;;;;;;26.11;60.71;94624.91;5073199;28;20186;-78
2022/07/09 10:03:56;;;;;;;4.00;2.80;;;;;;;26.08;60.81;94625.41;5073513;28;20190;-80
2022/07/09 10:06:25;;;;;;;2.85;2.65;;;;;;;26.05;60.87;94623.25;5073316;28;20194;-78
2022/07/09 10:08:53;;;;;;;2.92;2.65;;;;;;;26.02;60.75;94619.25;5073438;28;20268;-79
2022/07/09 10:11:20;;;;;;;2.70;2.50;;;;;;;26.03;60.82;94625.28;5073271;28;20209;-81
2022/07/09 10:13:54;;;;;;;2.55;2.30;;;;;;;26.02;60.91;94623.69;5073368;28;20206;-82
2022/07/09 10:16:36;;;;;;;3.78;2.70;;;;;;;25.97;61.14;94619.16;5072996;28;20191;-78
2022/07/09 10:19:03;;;;;;;2.60;2.40;;;;;;;25.95;60.98;94617.78;5073101;28;20198;-79
2022/07/09 10:21:38;;;;;;;2.60;2.40;;;;;;;25.92;60.87;94620.91;5073199;28;20192;-80
2022/07/09 10:24:08;;;;;;;3.83;2.60;;;;;;;25.87;61.08;94623.44;5073177;28;20186;-79
2022/07/09 10:26:44;;;;;;;2.60;2.40;;;;;;;25.82;61.06;94623.31;5072741;28;20194;-79
2022/07/09 10:29:23;;;;;;;3.80;2.60;;;;;;;25.61;61.23;94604.59;5072817;28;20292;-80
2022/07/09 10:31:50;;;;;;;3.13;2.08;;;;;;;25.71;61.40;94630.97;5072906;28;20198;-79
2022/07/09 10:34:57;;;;;;;2.90;2.50;;;;;;;25.74;61.45;94627.09;5072850;28;20229;-80
2022/07/09 10:37:37;;;;;;;7.53;3.03;;;;;;;25.79;61.11;94634.28;5030715;28;20196;-78
2022/07/09 10:40:14;;;;;;;2.63;2.45;;;;;;;25.82;61.37;94637.25;5030746;28;20194;-79
2022/07/09 10:42:41;;;;;;;2.10;1.98;;;;;;;25.90;61.03;94633.44;5030684;28;20196;-79
2022/07/09 10:45:23;;;;;;;2.97;2.47;;;;;;;25.91;60.70;94632.44;5030370;28;20290;-80
2022/07/09 10:47:53;;;;;;;2.40;2.20;;;;;;;25.94;61.04;94634.56;5029305;28;20231;-79
2022/07/09 10:50:20;;;;;;;2.10;1.90;;;;;;;25.93;60.53;94630.34;5030486;28;20184;-80
2022/07/09 10:52:48;;;;;;;2.05;1.92;;;;;;;25.96;60.61;94635.94;5030643;28;20199;-80
2022/07/09 10:55:18;;;;;;;1.70;1.60;;;;;;;25.97;60.75;94639.34;5030607;28;20714;-78
2022/07/09 10:57:46;;;;;;;2.00;1.90;;;;;;;26.00;59.89;94642.28;5030842;28;20590;-80
2022/07/09 11:00:16;;;;;;;1.70;1.60;;;;;;;26.05;60.04;94648.66;5029989;28;20199;-81
2022/07/09 11:02:55;;;;;;;1.88;1.70;;;;;;;26.07;59.88;94642.13;5030194;28;20274;-79
2022/07/09 11:05:22;;;;;;;1.73;1.55;;;;;;;26.06;59.72;94637.13;5029811;28;20188;-81
2022/07/09 11:07:59;;;;;;;1.67;1.58;;;;;;;26.13;59.64;94637.78;5030410;28;20675;-80
2022/07/09 11:10:28;;;;;;;1.90;1.80;;;;;;;26.17;59.28;94641.53;5030327;28;20203;-80
2022/07/09 11:12:55;;;;;;;2.67;1.60;;;;;;;26.22;59.14;94649.47;5050757;28;20661;-81
2022/07/09 11:15:23;;;;;;;1.55;1.45;;;;;;;26.23;59.45;94644.00;5071788;28;20720;-77
2022/07/09 11:17:57;;;;;;;1.67;1.50;;;;;;;26.23;58.98;94630.88;5072450;28;20198;-80
2022/07/09 11:20:24;;;;;;;1.60;1.50;;;;;;;26.29;58.73;94639.63;5071962;28;20198;-78
2022/07/09 11:22:51;;;;;;;1.50;1.40;;;;;;;26.32;58.72;94643.63;5072221;28;20268;-79
2022/07/09 11:25:18;;;;;;;2.03;1.77;;;;;;;26.29;58.74;94644.88;5071815;28;20197;-79
2022/07/09 11:27:46;;;;;;;1.40;1.30;;;;;;;26.30;58.58;94643.84;5072114;28;20179;-80
2022/07/09 11:30:14;;;;;;;2.35;1.83;;;;;;;26.22;58.38;94633.75;5071454;28;20190;-79
2022/07/09 11:32:42;;;;;;;2.55;1.40;;;;;;;26.23;58.55;94637.97;5071945;28;20224;-79
2022/07/09 11:35:10;;;;;;;1.70;1.60;;;;;;;26.28;58.16;94649.31;5071397;28;20257;-81
2022/07/09 11:37:37;;;;;;;2.35;1.50;;;;;;;26.27;58.42;94642.50;5071813;28;20195;-80